KTRI/TRI METAR and TAF weather

Enter ICAO airport designator
Station Type Date Time Source
KTRI METAR 2021/01/20 21:53 UTC NOAA

KTRI 202153Z 24010KT 10SM FEW250 07/M08 A3015 RMK AO2 SLP203 T00721083


Station Type Date Time Source
KTRI Decoded METAR 2021/01/20 21:53 UTC NOAA

TRI-CITY REGIONAL AIRPORT, TN, United States (KTRI) 36-28N 082-24W 474M
Jan 20, 2021 - 04:53 PM EST / 2021.01.20 2153 UTC
Wind: from the WSW (240 degrees) at 12 MPH (10 KT):0
Visibility: 10 mile(s):0
Sky conditions: mostly clear
Temperature: 45.0 F (7.2 C)
Dew Point: 17.1 F (-8.3 C)
Relative Humidity: 32%
Pressure (altimeter): 30.15 in. Hg (1020 hPa)
ob: KTRI 202153Z 24010KT 10SM FEW250 07/M08 A3015 RMK AO2 SLP203 T00721083
cycle: 22

Station Type Date Time Source
KTRI TAF 2021/01/20 18:33 UTC NOAA

TAF KTRI 201731Z 2018/2118 28011KT P6SM FEW040
FM210700 22006KT P6SM BKN080
FM211000 23009KT 4SM BR OVC004 PROB30 2112/2118 2SM -RA BR OVC015

Example: see airport list